Time;durP1;ratioP1;P1;durP2;ratioP2;P2;SDS_P1;SDS_P2;PMS_P1;PMS_P2;Temp;Humidity;BMP_temperature;BMP_pressure;BME280_temperature;BME280_humidity;BME280_pressure;Samples;Min_cycle;Max_cycle;Signal;HPM_P1;HPM_P2
2021/06/08 00:00:36;;;;;;;21.35;16.98;;;;;;;16.44;100.00;97203.56;5032983;28;20628;-62
2021/06/08 00:03:04;;;;;;;19.73;15.35;;;;;;;16.51;100.00;97198.88;5030936;28;20199;-62
2021/06/08 00:05:29;;;;;;;20.33;16.43;;;;;;;16.55;100.00;97204.47;5014614;28;20191;-62
2021/06/08 00:07:55;;;;;;;21.50;16.85;;;;;;;16.63;100.00;97206.66;5031134;28;20545;-62
2021/06/08 00:10:20;;;;;;;23.60;17.10;;;;;;;16.56;100.00;97206.03;5014271;28;20198;-62
2021/06/08 00:12:46;;;;;;;23.25;16.60;;;;;;;16.46;100.00;97204.13;5031783;28;20201;-62
2021/06/08 00:15:13;;;;;;;21.67;17.02;;;;;;;16.50;100.00;97210.50;5031819;28;20186;-62
2021/06/08 00:17:39;;;;;;;20.77;16.83;;;;;;;16.58;100.00;97206.59;5032139;28;20209;-62
2021/06/08 00:20:05;;;;;;;21.08;16.13;;;;;;;16.56;100.00;97211.34;5013366;28;20774;-62
2021/06/08 00:22:31;;;;;;;21.58;15.48;;;;;;;16.57;100.00;97215.56;5031956;28;20182;-62
2021/06/08 00:24:57;;;;;;;19.60;15.52;;;;;;;16.63;100.00;97217.25;5031165;28;20647;-62
2021/06/08 00:27:22;;;;;;;18.23;14.07;;;;;;;16.65;100.00;97206.41;5032141;28;20187;-62
2021/06/08 00:29:48;;;;;;;21.02;15.18;;;;;;;16.72;100.00;97215.72;5031306;28;20654;-62
2021/06/08 00:32:13;;;;;;;18.88;15.15;;;;;;;16.74;100.00;97205.66;5031538;28;20258;-62
2021/06/08 00:34:39;;;;;;;20.20;15.32;;;;;;;16.78;100.00;97214.69;5030557;28;20226;-62
2021/06/08 00:37:04;;;;;;;19.40;14.85;;;;;;;16.83;100.00;97203.34;5030433;28;20214;-63
2021/06/08 00:39:29;;;;;;;18.90;14.75;;;;;;;16.74;100.00;97212.81;5031162;28;20183;-62
2021/06/08 00:41:55;;;;;;;21.75;15.52;;;;;;;16.73;100.00;97205.91;5030720;28;20647;-62
2021/06/08 00:44:20;;;;;;;20.38;15.18;;;;;;;16.77;100.00;97207.03;5031722;28;20179;-62
2021/06/08 00:46:47;;;;;;;20.33;14.98;;;;;;;16.68;100.00;97204.03;5030938;28;20190;-62
2021/06/08 00:49:14;;;;;;;19.48;16.17;;;;;;;16.77;100.00;97201.72;5030986;28;20182;-63
2021/06/08 00:51:40;;;;;;;20.80;15.10;;;;;;;16.65;100.00;97196.63;5031292;28;20186;-62
2021/06/08 00:54:06;;;;;;;22.13;16.23;;;;;;;16.77;100.00;97199.88;5012711;28;20217;-62
2021/06/08 00:56:34;;;;;;;19.65;15.75;;;;;;;16.64;100.00;97187.09;5031301;28;20699;-63
2021/06/08 00:58:59;;;;;;;20.98;16.23;;;;;;;16.71;100.00;97184.22;5030084;28;20224;-63
2021/06/08 01:01:25;;;;;;;18.13;15.60;;;;;;;16.62;100.00;97191.81;5031257;28;20576;-63
2021/06/08 01:03:50;;;;;;;21.23;16.08;;;;;;;16.62;100.00;97184.69;5030625;28;20187;-62
2021/06/08 01:06:16;;;;;;;21.67;15.93;;;;;;;16.56;100.00;97182.22;5030971;28;20495;-63
2021/06/08 01:08:41;;;;;;;21.15;16.27;;;;;;;16.70;100.00;97180.78;5030625;28;20197;-62
2021/06/08 01:11:07;;;;;;;22.10;16.27;;;;;;;16.60;100.00;97186.00;5030591;28;20179;-63
2021/06/08 01:13:32;;;;;;;22.38;15.80;;;;;;;16.72;100.00;97178.66;5031155;28;20674;-63
2021/06/08 01:15:58;;;;;;;21.80;16.52;;;;;;;16.70;100.00;97177.31;5030563;28;20190;-62
2021/06/08 01:18:23;;;;;;;21.38;15.63;;;;;;;16.64;100.00;97179.16;5030954;28;20621;-63
2021/06/08 01:20:58;;;;;;;20.15;16.35;;;;;;;16.64;100.00;97173.84;5030265;28;20187;-62
2021/06/08 01:23:24;;;;;;;18.13;15.00;;;;;;;16.61;100.00;97169.84;5030442;28;20186;-63
2021/06/08 01:25:49;;;;;;;21.25;16.10;;;;;;;16.67;100.00;97173.31;5030550;28;20205;-62
2021/06/08 01:28:15;;;;;;;19.90;15.20;;;;;;;16.75;100.00;97172.84;5012862;28;20214;-62
2021/06/08 01:30:41;;;;;;;22.33;15.27;;;;;;;16.71;100.00;97178.94;5030918;28;20236;-62
2021/06/08 01:33:07;;;;;;;23.00;15.18;;;;;;;16.71;100.00;97176.28;5029772;28;20312;-62
2021/06/08 01:35:33;;;;;;;20.00;15.10;;;;;;;16.76;100.00;97176.31;5030240;28;20285;-62
2021/06/08 01:37:58;;;;;;;19.92;14.60;;;;;;;16.76;100.00;97176.31;5012045;28;20212;-62
2021/06/08 01:40:24;;;;;;;20.27;15.55;;;;;;;16.76;100.00;97184.25;5030411;28;20221;-63
2021/06/08 01:42:50;;;;;;;17.95;14.23;;;;;;;16.74;100.00;97175.75;5030223;28;20271;-62
2021/06/08 01:45:16;;;;;;;18.52;14.68;;;;;;;16.90;100.00;97172.13;5030140;28;20218;-62
2021/06/08 01:47:42;;;;;;;21.90;15.07;;;;;;;16.97;100.00;97168.22;5012953;28;20197;-62
2021/06/08 01:50:08;;;;;;;18.58;14.80;;;;;;;16.85;100.00;97178.19;5029422;28;20809;-62
2021/06/08 01:52:54;;;;;;;19.85;14.98;;;;;;;16.74;100.00;97179.19;5030881;28;20265;-62
2021/06/08 01:55:21;;;;;;;20.05;15.43;;;;;;;16.84;100.00;97175.81;5030546;28;20175;-62
2021/06/08 01:57:53;;;;;;;19.08;15.30;;;;;;;16.78;100.00;97182.13;5030431;28;20656;-62
2021/06/08 02:00:37;;;;;;;19.50;13.25;;;;;;;16.74;100.00;97173.91;5030518;28;20704;-62
2021/06/08 02:03:18;;;;;;;18.00;14.20;;;;;;;16.85;100.00;97178.19;5012167;28;20178;-62
2021/06/08 02:05:53;;;;;;;20.73;14.90;;;;;;;16.66;100.00;97181.53;5030147;28;20186;-62
2021/06/08 02:08:40;;;;;;;20.42;15.65;;;;;;;16.68;100.00;97182.06;5030371;28;20183;-62
2021/06/08 02:11:19;;;;;;;18.38;14.63;;;;;;;16.67;100.00;97188.41;5029541;28;20208;-62
2021/06/08 02:13:57;;;;;;;19.08;14.77;;;;;;;16.77;100.00;97185.84;5029721;28;20663;-63
2021/06/08 02:16:39;;;;;;;19.77;15.27;;;;;;;16.69;100.00;97181.81;5030424;28;20194;-64
2021/06/08 02:19:06;;;;;;;16.33;13.48;;;;;;;16.69;100.00;97188.97;5012166;28;20182;-63
2021/06/08 02:21:38;;;;;;;20.67;14.82;;;;;;;16.70;100.00;97194.00;5030480;28;20191;-63
2021/06/08 02:24:06;;;;;;;18.27;15.13;;;;;;;16.81;100.00;97185.06;5029349;28;20248;-62
2021/06/08 02:26:35;;;;;;;18.88;15.38;;;;;;;16.88;100.00;97185.66;5031569;28;20206;-62
2021/06/08 02:29:01;;;;;;;20.63;16.25;;;;;;;16.96;100.00;97189.66;5033050;28;20189;-62
2021/06/08 02:31:28;;;;;;;19.35;14.63;;;;;;;16.81;100.00;97192.22;5015729;28;20198;-62
2021/06/08 02:33:55;;;;;;;20.02;15.18;;;;;;;16.80;100.00;97196.72;5032754;28;20273;-62
2021/06/08 02:36:22;;;;;;;22.67;15.18;;;;;;;16.72;100.00;97194.53;5032920;28;20190;-63
2021/06/08 02:38:49;;;;;;;19.60;15.73;;;;;;;16.76;100.00;97186.91;5033590;28;20301;-62
2021/06/08 02:41:16;;;;;;;18.85;14.93;;;;;;;16.81;100.00;97190.38;5015117;28;20555;-62
2021/06/08 02:43:44;;;;;;;17.80;15.27;;;;;;;16.78;100.00;97190.06;5016070;28;20274;-63
2021/06/08 02:46:11;;;;;;;18.00;14.43;;;;;;;16.76;100.00;97189.53;5032745;28;20648;-62
2021/06/08 02:48:38;;;;;;;23.02;16.50;;;;;;;16.67;100.00;97191.84;5033945;28;20273;-62
2021/06/08 02:51:05;;;;;;;20.83;15.60;;;;;;;16.54;100.00;97189.63;5032651;28;20190;-62
2021/06/08 02:53:31;;;;;;;22.27;16.35;;;;;;;16.57;100.00;97192.56;5015068;28;20241;-62
2021/06/08 02:55:57;;;;;;;18.80;14.98;;;;;;;16.67;100.00;97189.22;5032453;28;20210;-62
2021/06/08 02:58:24;;;;;;;19.00;14.77;;;;;;;16.53;100.00;97191.47;5034118;28;20187;-62
2021/06/08 03:00:49;;;;;;;20.17;15.85;;;;;;;16.76;100.00;97195.63;5033163;28;20205;-62
2021/06/08 03:03:19;;;;;;;22.65;16.55;;;;;;;16.69;100.00;97184.47;5032748;28;20191;-62
2021/06/08 03:06:03;;;;;;;24.30;16.27;;;;;;;16.72;100.00;97191.88;5033844;28;20183;-63
2021/06/08 03:08:54;;;;;;;20.88;16.17;;;;;;;16.61;100.00;97193.66;5015820;28;20186;-62
2021/06/08 03:11:24;;;;;;;21.38;16.65;;;;;;;16.68;100.00;97198.75;5033071;28;20628;-62
2021/06/08 03:13:51;;;;;;;20.75;15.98;;;;;;;16.63;100.00;97198.72;5033342;28;20206;-62
2021/06/08 03:16:18;;;;;;;23.40;16.55;;;;;;;16.61;100.00;97192.88;5032787;28;20193;-62
2021/06/08 03:18:51;;;;;;;22.48;16.27;;;;;;;16.59;100.00;97197.63;5033161;28;20682;-63
2021/06/08 03:21:23;;;;;;;21.45;16.45;;;;;;;16.58;100.00;97199.44;5032559;28;20175;-62
2021/06/08 03:23:55;;;;;;;22.38;16.80;;;;;;;16.53;100.00;97196.78;5033516;28;20210;-62
2021/06/08 03:26:22;;;;;;;21.83;16.55;;;;;;;16.53;100.00;97190.69;5033167;28;20254;-62
2021/06/08 03:28:51;;;;;;;21.77;17.30;;;;;;;16.54;100.00;97197.56;5033018;28;20674;-62
2021/06/08 03:31:17;;;;;;;25.17;18.02;;;;;;;16.47;100.00;97194.34;5031856;28;20187;-61
2021/06/08 03:33:43;;;;;;;24.80;18.77;;;;;;;16.47;100.00;97187.19;5017078;28;20581;-62
2021/06/08 03:36:09;;;;;;;24.83;17.90;;;;;;;16.40;100.00;97191.91;5031277;28;20187;-62
2021/06/08 03:38:37;;;;;;;25.75;18.38;;;;;;;16.44;100.00;97190.34;5031852;28;20274;-62
2021/06/08 03:41:04;;;;;;;24.00;17.85;;;;;;;16.23;100.00;97191.22;5030692;28;20174;-61
2021/06/08 03:43:30;;;;;;;27.30;19.27;;;;;;;16.23;100.00;97193.88;5014880;28;20196;-61
2021/06/08 03:45:55;;;;;;;27.33;18.87;;;;;;;16.15;100.00;97191.72;5031252;28;20186;-61
2021/06/08 03:48:21;;;;;;;26.83;18.57;;;;;;;16.08;100.00;97197.19;5018073;28;20186;-62
2021/06/08 03:50:50;;;;;;;25.77;18.85;;;;;;;16.16;100.00;97201.25;5032724;28;20304;-62
2021/06/08 03:53:16;;;;;;;27.07;18.97;;;;;;;16.09;100.00;97201.44;5031617;28;20598;-62
2021/06/08 03:55:42;;;;;;;26.00;19.98;;;;;;;16.12;100.00;97200.94;5032520;28;20266;-62
2021/06/08 03:58:13;;;;;;;26.47;18.27;;;;;;;16.20;100.00;97207.63;5031425;28;20241;-62
2021/06/08 04:00:40;;;;;;;26.13;18.77;;;;;;;16.18;100.00;97207.06;5032416;28;20631;-62
2021/06/08 04:03:08;;;;;;;27.23;18.67;;;;;;;16.26;100.00;97203.97;5031676;28;20241;-63
2021/06/08 04:05:34;;;;;;;26.90;19.15;;;;;;;16.32;100.00;97207.47;5032428;28;20755;-62
2021/06/08 04:07:59;;;;;;;23.97;17.83;;;;;;;16.33;100.00;97223.06;5031267;28;20269;-62
2021/06/08 04:10:25;;;;;;;27.23;18.60;;;;;;;16.35;100.00;97215.69;5032400;28;20244;-62
2021/06/08 04:12:51;;;;;;;25.35;17.92;;;;;;;16.36;100.00;97219.91;5031691;28;20682;-63
2021/06/08 04:15:18;;;;;;;24.38;18.08;;;;;;;16.41;100.00;97224.44;5031422;28;20190;-64
2021/06/08 04:17:44;;;;;;;23.77;18.10;;;;;;;16.33;100.00;97222.28;5032000;28;20195;-64
2021/06/08 04:20:11;;;;;;;25.27;18.33;;;;;;;16.26;100.00;97221.69;5030999;28;20313;-63
2021/06/08 04:22:38;;;;;;;25.10;18.93;;;;;;;16.19;100.00;97225.34;5014257;28;20199;-64
2021/06/08 04:25:06;;;;;;;23.67;17.63;;;;;;;16.24;100.00;97227.22;5030210;28;20276;-63
2021/06/08 04:27:32;;;;;;;23.92;18.67;;;;;;;16.37;100.00;97228.66;5031344;28;20325;-63
2021/06/08 04:29:58;;;;;;;26.17;17.77;;;;;;;16.27;100.00;97236.50;5031149;28;20265;-63
2021/06/08 04:32:24;;;;;;;23.75;18.48;;;;;;;16.34;100.00;97232.59;5031410;28;20195;-63
2021/06/08 04:34:55;;;;;;;26.27;19.50;;;;;;;16.31;100.00;97232.31;5030604;28;20291;-63
2021/06/08 04:37:21;;;;;;;27.10;19.27;;;;;;;16.26;100.00;97229.63;5030927;28;20171;-63
2021/06/08 04:39:47;;;;;;;22.02;17.38;;;;;;;16.27;100.00;97225.94;5031340;28;20670;-63
2021/06/08 04:42:14;;;;;;;24.60;18.52;;;;;;;16.40;100.00;97228.94;5013082;28;20218;-63
2021/06/08 04:44:44;;;;;;;24.95;18.13;;;;;;;16.53;100.00;97225.09;5023803;28;20180;-63
2021/06/08 04:47:11;;;;;;;24.45;19.17;;;;;;;16.44;100.00;97237.19;5030281;28;20227;-63
2021/06/08 04:49:37;;;;;;;24.00;18.33;;;;;;;16.51;100.00;97227.97;5031206;28;20214;-64
2021/06/08 04:52:04;;;;;;;24.55;18.63;;;;;;;16.54;100.00;97226.69;5030351;28;20199;-63
2021/06/08 04:54:30;;;;;;;22.80;18.17;;;;;;;16.63;100.00;97227.81;5031055;28;20280;-63
2021/06/08 04:56:55;;;;;;;24.08;19.10;;;;;;;16.59;100.00;97218.81;5031428;28;20233;-63
2021/06/08 04:59:32;;;;;;;22.50;18.13;;;;;;;16.57;100.00;97215.56;5012849;28;20187;-63
2021/06/08 05:01:58;;;;;;;20.90;16.85;;;;;;;16.47;100.00;97224.25;5030351;28;20171;-63
2021/06/08 05:04:28;;;;;;;21.58;17.58;;;;;;;16.67;100.00;97217.53;5013234;28;20198;-63
2021/06/08 05:06:57;;;;;;;21.92;17.25;;;;;;;16.50;100.00;97222.94;5031369;28;20287;-64
2021/06/08 05:09:32;;;;;;;23.52;17.63;;;;;;;16.56;100.00;97220.06;5030875;28;20218;-63
2021/06/08 05:11:59;;;;;;;25.10;17.70;;;;;;;16.63;100.00;97225.19;5030564;28;20195;-63
2021/06/08 05:14:27;;;;;;;25.65;18.25;;;;;;;16.72;100.00;97226.28;5029746;28;20198;-63
2021/06/08 05:16:54;;;;;;;21.65;17.13;;;;;;;16.83;100.00;97225.31;5031290;28;20187;-63
2021/06/08 05:19:20;;;;;;;25.98;18.65;;;;;;;16.72;100.00;97228.94;5030774;28;20254;-63
2021/06/08 05:21:47;;;;;;;26.92;18.08;;;;;;;16.57;100.00;97226.97;5031207;28;20290;-63
2021/06/08 05:24:15;;;;;;;26.92;19.02;;;;;;;16.57;100.00;97228.81;5030399;28;20214;-64
2021/06/08 05:26:45;;;;;;;26.73;19.02;;;;;;;16.48;100.00;97233.78;5030129;28;20182;-64
2021/06/08 05:29:11;;;;;;;24.80;19.33;;;;;;;16.44;100.00;97234.56;5029727;28;20618;-63
2021/06/08 05:31:37;;;;;;;27.65;20.05;;;;;;;16.55;100.00;97233.56;5030502;28;20187;-64
2021/06/08 05:34:03;;;;;;;26.08;20.15;;;;;;;16.55;100.00;97239.63;5029102;28;20253;-64
2021/06/08 05:36:34;;;;;;;26.63;20.08;;;;;;;16.56;100.00;97245.72;5030068;28;20194;-64
2021/06/08 05:38:59;;;;;;;25.85;19.75;;;;;;;16.43;100.00;97249.63;5029693;28;20201;-64
2021/06/08 05:41:27;;;;;;;25.25;19.50;;;;;;;16.42;100.00;97247.22;5030563;28;20691;-64
2021/06/08 05:43:53;;;;;;;25.20;19.75;;;;;;;16.47;100.00;97250.72;5012910;28;20213;-64
2021/06/08 05:46:18;;;;;;;26.33;19.10;;;;;;;16.54;100.00;97248.66;5029591;28;20178;-63
2021/06/08 05:48:44;;;;;;;27.40;19.25;;;;;;;16.65;100.00;97241.63;5030448;28;20187;-63
2021/06/08 05:51:10;;;;;;;25.88;18.95;;;;;;;16.77;100.00;97246.75;5029637;28;20186;-64
2021/06/08 05:53:41;;;;;;;25.30;19.30;;;;;;;16.78;100.00;97251.75;5030272;28;20238;-63
2021/06/08 05:56:07;;;;;;;24.23;18.27;;;;;;;16.82;100.00;97252.88;5029458;28;20186;-63
2021/06/08 05:58:34;;;;;;;22.50;17.75;;;;;;;16.83;100.00;97246.50;5030099;28;20187;-64
2021/06/08 06:01:00;;;;;;;24.05;18.73;;;;;;;17.05;100.00;97244.50;5030895;28;20265;-63
2021/06/08 06:03:27;;;;;;;23.42;17.73;;;;;;;16.99;100.00;97250.06;5033992;28;20269;-63
2021/06/08 06:05:55;;;;;;;25.27;19.73;;;;;;;16.99;100.00;97253.50;5034522;28;20198;-63
2021/06/08 06:08:21;;;;;;;26.40;19.02;;;;;;;16.79;100.00;97248.06;5033305;28;20244;-63
2021/06/08 06:10:47;;;;;;;28.65;18.98;;;;;;;16.91;100.00;97247.88;5032899;28;20190;-64
2021/06/08 06:13:45;;;;;;;26.60;18.75;;;;;;;16.92;100.00;97249.47;5033055;28;20293;-63
2021/06/08 06:16:11;;;;;;;23.83;18.48;;;;;;;17.01;100.00;97247.94;5033285;28;20491;-63
2021/06/08 06:18:38;;;;;;;27.23;19.35;;;;;;;17.03;100.00;97254.59;5034395;28;20183;-63
2021/06/08 06:21:04;;;;;;;26.65;20.13;;;;;;;16.88;100.00;97251.84;5032710;28;20237;-63
2021/06/08 06:23:32;;;;;;;23.80;18.23;;;;;;;17.04;100.00;97242.13;5016403;28;20202;-64
2021/06/08 06:25:58;;;;;;;24.95;17.88;;;;;;;17.18;100.00;97248.56;5033068;28;20202;-63
2021/06/08 06:28:23;;;;;;;23.02;18.75;;;;;;;17.07;100.00;97248.75;5011267;28;20202;-63
2021/06/08 06:30:50;;;;;;;22.30;17.67;;;;;;;17.03;100.00;97254.59;5020321;28;20236;-63
2021/06/08 06:33:16;;;;;;;25.17;18.85;;;;;;;17.14;100.00;97247.50;5032464;28;20258;-63
2021/06/08 06:35:41;;;;;;;23.27;18.15;;;;;;;16.89;100.00;97253.41;5032350;28;20237;-63
2021/06/08 06:38:08;;;;;;;25.55;18.83;;;;;;;16.90;100.00;97247.06;5032346;28;20557;-63
2021/06/08 06:40:36;;;;;;;23.38;18.20;;;;;;;16.84;100.00;97249.94;5033311;28;20635;-64
2021/06/08 06:43:05;;;;;;;27.55;18.17;;;;;;;17.02;100.00;97245.03;5031774;28;20316;-63
2021/06/08 06:45:36;;;;;;;21.92;16.73;;;;;;;16.92;100.00;97252.13;5019458;28;20341;-64
2021/06/08 06:48:03;;;;;;;25.23;18.15;;;;;;;16.98;100.00;97253.75;5032984;28;20655;-63
2021/06/08 06:50:33;;;;;;;22.15;16.85;;;;;;;17.02;100.00;97263.56;5032006;28;20194;-63
2021/06/08 06:52:59;;;;;;;23.55;17.65;;;;;;;16.97;100.00;97260.91;5023582;28;20206;-64
2021/06/08 06:55:27;;;;;;;22.52;15.95;;;;;;;16.82;100.00;97263.47;5029666;28;20647;-63
2021/06/08 06:57:54;;;;;;;21.35;17.15;;;;;;;16.83;100.00;97265.03;5032837;28;20210;-63
2021/06/08 07:00:20;;;;;;;22.48;17.25;;;;;;;16.88;100.00;97266.94;5031840;28;20187;-63
2021/06/08 07:02:46;;;;;;;21.98;17.30;;;;;;;16.87;100.00;97271.44;5032179;28;20245;-63
2021/06/08 07:05:14;;;;;;;20.27;16.77;;;;;;;16.71;100.00;97272.38;5031812;28;20646;-63
2021/06/08 07:07:42;;;;;;;21.73;17.38;;;;;;;16.81;100.00;97275.09;5030587;28;20273;-63
2021/06/08 07:10:14;;;;;;;20.40;15.82;;;;;;;16.84;100.00;97279.88;5030772;28;20194;-63
2021/06/08 07:12:41;;;;;;;23.07;17.17;;;;;;;16.86;100.00;97269.03;5025992;28;20191;-63
2021/06/08 07:15:09;;;;;;;25.25;17.38;;;;;;;16.74;100.00;97277.16;5022099;28;20555;-63
2021/06/08 07:17:35;;;;;;;23.83;17.77;;;;;;;16.86;100.00;97267.19;5032119;28;20198;-63
2021/06/08 07:20:02;;;;;;;22.60;16.77;;;;;;;16.92;100.00;97268.81;5031505;28;20175;-63
2021/06/08 07:22:28;;;;;;;20.95;16.50;;;;;;;17.04;100.00;97276.56;5031774;28;20187;-63
2021/06/08 07:24:54;;;;;;;21.23;16.80;;;;;;;17.03;100.00;97275.78;5031523;28;20189;-63
2021/06/08 07:27:19;;;;;;;21.65;16.20;;;;;;;17.13;100.00;97269.72;5031372;28;20368;-63
2021/06/08 07:29:45;;;;;;;25.08;17.40;;;;;;;16.91;100.00;97277.00;5032154;28;20545;-63
2021/06/08 07:32:35;;;;;;;25.40;16.15;;;;;;;17.11;100.00;97271.06;5013142;28;20187;-63
2021/06/08 07:35:09;;;;;;;27.20;19.08;;;;;;;17.07;100.00;97269.94;5021663;28;20222;-63
2021/06/08 07:37:39;;;;;;;21.48;17.10;;;;;;;17.33;100.00;97269.84;5031358;28;20229;-63
2021/06/08 07:40:09;;;;;;;21.42;16.73;;;;;;;17.53;100.00;97268.34;5031170;28;20181;-63
2021/06/08 07:42:42;;;;;;;22.80;16.17;;;;;;;17.39;100.00;97263.50;5023646;28;20210;-62
2021/06/08 07:45:10;;;;;;;22.30;16.95;;;;;;;17.32;100.00;97265.63;5031082;28;20571;-62
2021/06/08 07:47:36;;;;;;;23.80;16.20;;;;;;;17.43;100.00;97266.47;5031853;28;20187;-62
2021/06/08 07:50:06;;;;;;;22.38;16.55;;;;;;;17.69;100.00;97268.19;5030483;28;20191;-62
2021/06/08 07:52:32;;;;;;;22.35;16.23;;;;;;;17.65;100.00;97268.97;5032179;28;20195;-62
2021/06/08 07:54:58;;;;;;;22.70;15.27;;;;;;;17.89;100.00;97270.09;5031100;28;20294;-63
2021/06/08 07:57:24;;;;;;;22.15;16.27;;;;;;;17.95;100.00;97282.31;5028772;28;20537;-62
2021/06/08 07:59:50;;;;;;;24.45;17.00;;;;;;;17.89;100.00;97274.63;5032004;28;20214;-62
2021/06/08 08:02:21;;;;;;;25.45;18.48;;;;;;;17.78;100.00;97274.56;5031209;28;20603;-62
2021/06/08 08:04:51;;;;;;;22.95;17.15;;;;;;;17.82;100.00;97282.81;5031281;28;20273;-62
2021/06/08 08:07:25;;;;;;;24.02;18.35;;;;;;;17.45;100.00;97277.56;5011129;28;20183;-62
2021/06/08 08:09:52;;;;;;;27.95;20.10;;;;;;;17.57;100.00;97275.53;5021894;28;20194;-62
2021/06/08 08:12:18;;;;;;;24.75;17.98;;;;;;;17.66;100.00;97276.66;5030541;28;20259;-62
2021/06/08 08:14:46;;;;;;;24.52;19.13;;;;;;;17.69;100.00;97278.00;5031388;28;20678;-62
2021/06/08 08:17:12;;;;;;;27.30;18.73;;;;;;;17.78;100.00;97284.38;5015489;28;20344;-62
2021/06/08 08:19:39;;;;;;;22.25;17.58;;;;;;;17.81;100.00;97286.53;5031190;28;20621;-63
2021/06/08 08:22:06;;;;;;;22.42;16.45;;;;;;;17.59;100.00;97284.03;5031301;28;20221;-63
2021/06/08 08:24:32;;;;;;;25.60;17.83;;;;;;;17.63;100.00;97289.63;5031108;28;20186;-62
2021/06/08 08:27:00;;;;;;;25.13;18.08;;;;;;;17.54;100.00;97283.19;5031472;28;20266;-62
2021/06/08 08:29:26;;;;;;;23.75;17.05;;;;;;;17.70;100.00;97287.53;5013167;28;20274;-63
2021/06/08 08:31:51;;;;;;;21.85;17.10;;;;;;;18.05;100.00;97289.53;5031185;28;20193;-63
2021/06/08 08:34:17;;;;;;;22.40;17.20;;;;;;;18.32;99.09;97291.97;5012122;28;20305;-62
2021/06/08 08:36:42;;;;;;;20.42;15.98;;;;;;;18.41;99.56;97299.13;5031170;28;20190;-62
2021/06/08 08:39:10;;;;;;;21.67;16.17;;;;;;;18.21;99.70;97293.81;5030870;28;20187;-62
2021/06/08 08:41:37;;;;;;;23.67;17.48;;;;;;;18.21;99.20;97291.94;5030983;28;20198;-62
2021/06/08 08:44:03;;;;;;;21.48;16.20;;;;;;;18.40;98.97;97294.06;5031377;28;20182;-62
2021/06/08 08:46:29;;;;;;;22.75;17.00;;;;;;;18.44;97.90;97297.81;5031151;28;20670;-63
2021/06/08 08:48:56;;;;;;;21.23;17.67;;;;;;;18.15;98.13;97297.50;5031823;28;20655;-62
2021/06/08 08:51:25;;;;;;;24.02;17.33;;;;;;;18.05;99.12;97298.28;5012715;28;20261;-62
2021/06/08 08:53:56;;;;;;;25.55;18.92;;;;;;;18.04;100.00;97296.69;5031245;28;20210;-62
2021/06/08 08:56:27;;;;;;;20.55;16.95;;;;;;;18.23;99.74;97302.28;5030606;28;20183;-63
2021/06/08 08:58:53;;;;;;;22.95;16.88;;;;;;;18.47;98.15;97300.72;5031455;28;20178;-63
2021/06/08 09:01:19;;;;;;;24.63;18.00;;;;;;;18.72;95.97;97293.88;5027382;28;20194;-62
2021/06/08 09:03:45;;;;;;;24.60;17.25;;;;;;;18.69;95.81;97303.16;5031591;28;20272;-62
2021/06/08 09:06:12;;;;;;;22.92;16.75;;;;;;;18.82;96.18;97299.19;5011911;28;20194;-62
2021/06/08 09:08:39;;;;;;;22.30;17.08;;;;;;;18.95;93.91;97306.59;5036377;28;20178;-62
2021/06/08 09:11:07;;;;;;;23.17;18.08;;;;;;;19.28;91.38;97299.94;5030206;28;20189;-62
2021/06/08 09:13:32;;;;;;;20.10;15.95;;;;;;;19.10;92.59;97301.28;5031261;28;20332;-63
2021/06/08 09:15:58;;;;;;;20.40;15.40;;;;;;;19.72;89.20;97300.91;5030643;28;20269;-62
2021/06/08 09:18:24;;;;;;;23.00;17.63;;;;;;;19.44;89.39;97302.28;5012124;28;20659;-63
2021/06/08 09:20:51;;;;;;;22.70;17.58;;;;;;;19.79;87.50;97298.72;5015292;28;20191;-63
2021/06/08 09:23:22;;;;;;;21.15;17.23;;;;;;;19.98;85.96;97296.25;5029997;28;20182;-62
2021/06/08 09:25:50;;;;;;;25.08;18.08;;;;;;;19.91;85.36;97293.88;5013271;28;20228;-63
2021/06/08 09:28:21;;;;;;;23.40;17.95;;;;;;;19.74;85.29;97305.94;5029979;28;20211;-62
2021/06/08 09:30:48;;;;;;;20.85;16.50;;;;;;;20.14;83.79;97304.94;5028115;28;20175;-63
2021/06/08 09:33:26;;;;;;;19.95;16.50;;;;;;;19.98;85.50;97300.78;5029040;28;20337;-63
2021/06/08 09:36:05;;;;;;;20.63;16.42;;;;;;;19.98;85.19;97301.56;5030588;28;20183;-62
2021/06/08 09:38:40;;;;;;;20.88;17.08;;;;;;;20.46;83.35;97294.66;5030457;28;20191;-63
2021/06/08 09:41:30;;;;;;;22.77;17.73;;;;;;;21.06;81.13;97306.72;5029570;28;20655;-63
2021/06/08 09:44:01;;;;;;;19.27;16.23;;;;;;;21.27;79.27;97294.00;5030413;28;20190;-63
2021/06/08 09:46:28;;;;;;;21.35;16.45;;;;;;;21.21;79.02;97303.13;5029892;28;20186;-62
2021/06/08 09:48:59;;;;;;;19.75;16.50;;;;;;;21.49;76.40;97294.31;5029974;28;20195;-63
2021/06/08 09:51:26;;;;;;;22.70;17.70;;;;;;;21.72;75.07;97292.72;5024249;28;20174;-63
2021/06/08 09:53:51;;;;;;;18.95;16.02;;;;;;;22.10;73.11;97298.13;5030257;28;20397;-64
2021/06/08 09:56:19;;;;;;;19.73;16.00;;;;;;;22.02;73.29;97296.09;5029778;28;20261;-63
2021/06/08 09:58:52;;;;;;;22.60;18.27;;;;;;;21.50;74.38;97293.25;5011971;28;20182;-63
2021/06/08 10:01:19;;;;;;;19.13;15.88;;;;;;;21.29;75.86;97291.06;5012424;28;20289;-63
2021/06/08 10:03:55;;;;;;;18.95;15.60;;;;;;;21.91;74.09;97285.53;5030414;28;20265;-63
2021/06/08 10:06:22;;;;;;;20.05;16.10;;;;;;;22.03;72.79;97287.00;5029464;28;20569;-63
2021/06/08 10:08:50;;;;;;;18.25;15.63;;;;;;;22.26;73.40;97288.81;5012703;28;20182;-63
2021/06/08 10:11:45;;;;;;;18.42;15.07;;;;;;;22.47;72.19;97295.47;5029521;28;20651;-63
2021/06/08 10:14:11;;;;;;;18.23;14.70;;;;;;;22.90;69.89;97298.03;5025795;28;20697;-63
2021/06/08 10:16:38;;;;;;;19.08;14.82;;;;;;;22.93;69.77;97297.44;5030508;28;20183;-63
2021/06/08 10:19:04;;;;;;;16.58;14.27;;;;;;;23.31;68.66;97298.91;5012397;28;20190;-63
2021/06/08 10:21:38;;;;;;;17.23;15.13;;;;;;;22.77;68.16;97300.38;5012357;28;20240;-63
2021/06/08 10:24:13;;;;;;;16.63;13.77;;;;;;;23.43;67.22;97293.88;5030198;28;20249;-63
2021/06/08 10:26:41;;;;;;;16.17;13.85;;;;;;;23.50;66.33;97301.53;5030202;28;20190;-64
2021/06/08 10:29:10;;;;;;;20.55;14.98;;;;;;;22.21;69.45;97302.25;5029909;28;20183;-63
2021/06/08 10:31:39;;;;;;;18.42;15.20;;;;;;;22.43;69.58;97294.47;5012407;28;20548;-63
2021/06/08 10:34:10;;;;;;;18.30;14.20;;;;;;;22.98;68.10;97297.34;5028796;28;20245;-63
2021/06/08 10:36:37;;;;;;;16.40;13.65;;;;;;;23.52;65.93;97294.00;5029579;28;20175;-63
2021/06/08 10:39:08;;;;;;;16.23;14.05;;;;;;;23.50;64.92;97298.88;5030231;28;20194;-63
2021/06/08 10:41:38;;;;;;;14.80;12.32;;;;;;;23.87;64.45;97292.50;5029343;28;20210;-63
2021/06/08 10:44:05;;;;;;;17.40;14.20;;;;;;;24.30;62.05;97287.56;5030340;28;20274;-63
2021/06/08 10:46:35;;;;;;;15.77;12.98;;;;;;;24.74;60.65;97292.97;5030403;28;20744;-63
2021/06/08 10:49:03;;;;;;;17.70;13.85;;;;;;;23.77;62.35;97287.34;5025030;28;20640;-65
2021/06/08 10:51:31;;;;;;;19.27;14.70;;;;;;;23.62;63.18;97296.50;5033502;28;20644;-62
2021/06/08 10:53:59;;;;;;;16.33;13.73;;;;;;;23.39;63.41;97287.53;5033806;28;20198;-62
2021/06/08 10:56:32;;;;;;;17.45;14.13;;;;;;;23.46;64.39;97287.94;5032745;28;20179;-63
2021/06/08 10:59:09;;;;;;;14.57;12.65;;;;;;;24.09;63.51;97289.88;5033350;28;20210;-63
2021/06/08 11:01:43;;;;;;;17.92;13.75;;;;;;;24.03;62.14;97285.72;5033747;28;20197;-63
2021/06/08 11:04:14;;;;;;;16.85;14.30;;;;;;;23.12;64.48;97285.63;5032840;28;20591;-62
2021/06/08 11:06:39;;;;;;;16.88;14.25;;;;;;;22.58;65.49;97286.19;5033830;28;20193;-62
2021/06/08 11:09:14;;;;;;;16.63;14.63;;;;;;;22.87;65.48;97279.91;5033143;28;20191;-63
2021/06/08 11:11:45;;;;;;;17.92;15.05;;;;;;;22.47;66.92;97287.44;5033742;28;20174;-62
2021/06/08 11:14:32;;;;;;;18.15;15.63;;;;;;;21.84;68.67;97290.44;5032145;28;20203;-62
2021/06/08 11:17:04;;;;;;;17.73;15.23;;;;;;;21.80;69.84;97286.72;5032529;28;20201;-63